CheckWX is a tool to help pilots better visualize weather data.  It is not intended as a substitute for an official pre-flight weather briefing.

20:27:24 UTC

CYHA TAF
Quaqtaq Airport
Quaqtaq, Canada
TAF CYHA 281438Z 2815/2822 34010KT 4SM -SN OVC020 TEMPO 2815/2822 P6SM NSW OVC040 BECMG 2815/2817 34018KT RMK NXT FCST WILL BE ISSUED AT 291445Z

Jan-28@
15:00 UTC

Jan-28 @ 15:00 UTC

Jan-28@
22:00 UTC

Jan-28 @ 22:00 UTC

TAF CYHA 281438Z 2815/2822 34010KT 4SM -SN OVC020
Wind
  • 340° at 10 KTS
Conditions
Light Snow
Cloud Levels
  • Overcast at 2,000' AGL

Jan-28@
15:00 UTC

Jan-28 @ 15:00 UTC

Jan-28@
22:00 UTC

Jan-28 @ 22:00 UTC

TEMPO 2815/2822 P6SM NSW OVC040

Temporary

Temporary Changes expected for less than half the time period

Conditions
No significant weather
Cloud Levels
  • Overcast at 4,000' AGL

Jan-28@
15:00 UTC

Jan-28 @ 15:00 UTC

Jan-28@
22:00 UTC

Jan-28 @ 22:00 UTC

BECMG 2815/2817 34018KT RMK NXT FCST WILL BE ISSUED AT 291445Z

Becoming

Becoming Conditions expected by Tue, Jan 28, 2020 @ 17:00 UTC

Wind
  • 340° at 18 KTS
Conditions
Light Snow
Cloud Levels
  • Overcast at 2,000' AGL